Time;durP1;ratioP1;P1;durP2;ratioP2;P2;SDS_P1;SDS_P2;PMS_P1;PMS_P2;Temp;Humidity;BMP_temperature;BMP_pressure;BME280_temperature;BME280_humidity;BME280_pressure;Samples;Min_cycle;Max_cycle;Signal;HPM_P1;HPM_P2
2023/02/17 00:01:32;;;;;;;22.52;17.85;;;8.20;99.90;;;;;;5073563;28;20204;-62
2023/02/17 00:04:01;;;;;;;22.13;17.15;;;8.20;99.90;;;;;;5073887;28;20579;-61
2023/02/17 00:06:30;;;;;;;23.92;18.80;;;8.20;99.90;;;;;;5074213;28;20231;-62
2023/02/17 00:08:58;;;;;;;27.55;19.23;;;8.20;99.90;;;;;;5074054;28;20205;-61
2023/02/17 00:11:25;;;;;;;22.75;18.40;;;8.20;99.90;;;;;;5073915;28;20203;-61
2023/02/17 00:13:52;;;;;;;27.65;19.40;;;8.30;99.90;;;;;;5073845;28;20214;-61
2023/02/17 00:16:21;;;;;;;31.05;17.77;;;8.30;99.90;;;;;;5073489;28;20237;-61
2023/02/17 00:18:53;;;;;;;25.75;18.50;;;8.30;99.90;;;;;;5073803;28;20210;-61
2023/02/17 00:21:24;;;;;;;23.60;17.50;;;8.30;99.90;;;;;;5073306;28;20662;-62
2023/02/17 00:23:51;;;;;;;29.58;18.95;;;8.40;99.90;;;;;;5073444;28;20191;-61
2023/02/17 00:26:19;;;;;;;21.92;17.55;;;8.40;99.90;;;;;;5074082;28;20603;-62
2023/02/17 00:28:47;;;;;;;21.95;17.85;;;8.40;99.90;;;;;;5077355;28;20231;-61
2023/02/17 00:31:16;;;;;;;25.95;19.10;;;8.40;99.90;;;;;;5077177;28;20203;-62
2023/02/17 00:33:43;;;;;;;24.52;18.38;;;8.40;99.90;;;;;;5076849;28;20203;-61
2023/02/17 00:36:12;;;;;;;28.05;19.60;;;8.50;99.90;;;;;;5077211;28;20223;-61
2023/02/17 00:38:40;;;;;;;20.67;17.52;;;8.50;99.90;;;;;;5076999;28;20212;-61
2023/02/17 00:41:07;;;;;;;22.20;16.98;;;8.50;99.90;;;;;;5077029;28;20216;-61
2023/02/17 00:43:34;;;;;;;22.50;17.98;;;8.50;99.90;;;;;;5077202;28;20203;-60
2023/02/17 00:46:02;;;;;;;20.27;15.35;;;8.60;99.90;;;;;;5077215;28;20223;-62
2023/02/17 00:48:29;;;;;;;19.80;15.90;;;8.60;99.90;;;;;;5076940;28;20207;-61
2023/02/17 00:50:57;;;;;;;20.08;15.48;;;8.70;99.90;;;;;;5077095;28;20667;-61
2023/02/17 00:53:23;;;;;;;19.50;16.60;;;8.70;99.90;;;;;;5076974;28;20219;-62
2023/02/17 00:55:52;;;;;;;19.58;15.63;;;8.80;99.90;;;;;;5077054;28;20221;-60
2023/02/17 00:58:18;;;;;;;22.05;15.93;;;8.80;99.90;;;;;;5076897;28;20211;-60
2023/02/17 01:00:45;;;;;;;17.02;15.23;;;8.90;99.90;;;;;;5077273;28;20211;-61
2023/02/17 01:03:12;;;;;;;21.00;15.00;;;8.90;99.90;;;;;;5076864;28;20204;-61
2023/02/17 01:05:41;;;;;;;17.02;14.90;;;8.90;99.90;;;;;;5076597;28;20221;-61
2023/02/17 01:08:08;;;;;;;16.85;14.00;;;9.00;99.90;;;;;;5076665;28;20200;-61
2023/02/17 01:10:38;;;;;;;15.95;14.25;;;9.00;99.90;;;;;;5076846;28;20200;-61
2023/02/17 01:13:07;;;;;;;16.35;13.45;;;9.00;99.90;;;;;;5076501;28;20204;-61
2023/02/17 01:15:37;;;;;;;17.05;14.23;;;9.00;99.90;;;;;;5076534;28;20229;-61
2023/02/17 01:18:04;;;;;;;18.52;14.45;;;9.10;99.90;;;;;;5076453;28;20203;-61
2023/02/17 01:20:34;;;;;;;18.35;14.35;;;9.10;99.90;;;;;;5076283;28;20199;-61
2023/02/17 01:23:01;;;;;;;16.27;13.20;;;9.10;99.90;;;;;;5076731;28;20203;-60
2023/02/17 01:25:27;;;;;;;18.55;14.65;;;9.20;99.90;;;;;;5076294;28;20710;-63
2023/02/17 01:27:54;;;;;;;17.58;15.57;;;9.20;99.90;;;;;;5076512;28;20202;-61
2023/02/17 01:30:23;;;;;;;15.93;13.30;;;9.20;99.90;;;;;;5076518;28;20216;-59
2023/02/17 01:32:49;;;;;;;14.63;12.43;;;9.20;99.90;;;;;;5076194;28;20208;-60
2023/02/17 01:35:16;;;;;;;13.63;12.15;;;9.30;99.90;;;;;;5076718;28;20707;-61
2023/02/17 01:37:43;;;;;;;16.98;14.57;;;9.30;99.90;;;;;;5078740;28;20229;-63
2023/02/17 01:40:12;;;;;;;16.02;13.60;;;9.30;99.90;;;;;;5079902;28;20672;-61
2023/02/17 01:42:39;;;;;;;18.10;14.63;;;9.30;99.90;;;;;;5078230;28;20207;-60
2023/02/17 01:45:32;;;;;;;14.63;12.75;;;9.30;99.90;;;;;;5076213;28;20727;-60
2023/02/17 01:48:02;;;;;;;17.75;14.27;;;9.40;99.90;;;;;;5076513;28;20194;-61
2023/02/17 01:50:34;;;;;;;16.27;14.45;;;9.40;99.90;;;;;;5076826;28;20194;-60
2023/02/17 01:53:03;;;;;;;18.13;14.30;;;9.40;99.90;;;;;;5076163;28;20215;-61
2023/02/17 01:55:31;;;;;;;15.65;13.30;;;9.40;99.90;;;;;;5075842;28;20218;-60
2023/02/17 01:58:01;;;;;;;15.05;13.50;;;9.40;99.90;;;;;;5075797;28;20207;-61
2023/02/17 02:00:30;;;;;;;16.50;13.65;;;9.50;99.90;;;;;;5076313;28;20192;-61
2023/02/17 02:03:00;;;;;;;17.85;14.30;;;9.50;99.90;;;;;;5075842;28;20214;-61
2023/02/17 02:05:26;;;;;;;16.75;14.20;;;9.50;99.90;;;;;;5075773;28;20231;-60
2023/02/17 02:07:54;;;;;;;15.30;13.05;;;9.50;99.90;;;;;;5075149;28;20668;-60
2023/02/17 02:10:20;;;;;;;18.83;14.93;;;9.50;99.90;;;;;;5075474;28;20208;-61
2023/02/17 02:12:47;;;;;;;17.63;15.45;;;9.50;99.90;;;;;;5075296;28;20211;-61
2023/02/17 02:15:16;;;;;;;17.20;14.52;;;9.50;99.90;;;;;;5075026;28;20226;-60
2023/02/17 02:17:59;;;;;;;17.33;15.43;;;9.60;99.90;;;;;;5075254;28;20237;-61
2023/02/17 02:20:42;;;;;;;17.00;14.68;;;9.60;99.90;;;;;;5075647;28;20630;-61
2023/02/17 02:23:44;;;;;;;17.02;14.40;;;9.60;99.90;;;;;;5075122;28;20281;-60
2023/02/17 02:26:31;;;;;;;17.90;15.73;;;9.60;99.90;;;;;;5074470;28;20719;-60
2023/02/17 02:29:24;;;;;;;18.98;16.17;;;9.60;99.90;;;;;;5075053;28;20190;-61
2023/02/17 02:32:02;;;;;;;18.77;14.93;;;9.70;99.90;;;;;;5074652;28;20660;-62
2023/02/17 02:34:34;;;;;;;18.50;15.50;;;9.70;99.90;;;;;;5074701;28;20189;-61
2023/02/17 02:37:05;;;;;;;18.17;15.75;;;9.70;99.90;;;;;;5074950;28;20214;-61
2023/02/17 02:39:37;;;;;;;16.73;14.88;;;9.70;99.90;;;;;;5074941;28;20638;-61
2023/02/17 02:42:08;;;;;;;18.55;15.65;;;9.80;99.90;;;;;;5074514;28;20186;-61
2023/02/17 02:44:34;;;;;;;17.75;14.32;;;9.80;99.90;;;;;;5074566;28;20500;-61
2023/02/17 02:47:03;;;;;;;19.30;15.45;;;9.80;99.90;;;;;;5074734;28;20225;-61
2023/02/17 02:49:33;;;;;;;17.60;15.70;;;9.80;99.90;;;;;;5073345;28;20705;-61
2023/02/17 02:52:07;;;;;;;17.23;14.32;;;9.80;99.90;;;;;;5075111;28;20224;-61
2023/02/17 02:54:45;;;;;;;16.75;14.40;;;9.80;99.90;;;;;;5074429;28;20192;-61
2023/02/17 02:57:26;;;;;;;16.38;13.13;;;9.80;99.90;;;;;;5074410;28;20213;-62
2023/02/17 03:00:06;;;;;;;15.45;12.95;;;9.90;99.90;;;;;;5074517;28;20282;-61
2023/02/17 03:02:41;;;;;;;14.77;13.25;;;9.90;99.90;;;;;;5074309;28;20644;-60
2023/02/17 03:05:15;;;;;;;17.80;14.73;;;9.90;99.90;;;;;;5073895;28;20308;-62
2023/02/17 03:07:49;;;;;;;17.38;14.10;;;9.90;99.90;;;;;;5074442;28;20192;-61
2023/02/17 03:10:16;;;;;;;15.10;12.93;;;9.90;99.90;;;;;;5074649;28;20213;-60
2023/02/17 03:12:43;;;;;;;16.67;14.70;;;10.00;99.90;;;;;;5074481;28;20210;-60
2023/02/17 03:15:15;;;;;;;15.68;13.98;;;10.00;99.90;;;;;;5073885;28;20220;-62
2023/02/17 03:17:42;;;;;;;16.60;13.68;;;10.00;99.90;;;;;;5073811;28;20683;-61
2023/02/17 03:20:12;;;;;;;16.23;13.80;;;10.00;99.90;;;;;;5075152;28;20205;-61
2023/02/17 03:22:41;;;;;;;16.02;14.30;;;10.00;99.90;;;;;;5074595;28;20194;-61
2023/02/17 03:25:08;;;;;;;17.23;15.05;;;10.00;99.90;;;;;;5073703;28;20236;-61
2023/02/17 03:27:35;;;;;;;15.67;14.07;;;10.00;99.90;;;;;;5073455;28;20204;-61
2023/02/17 03:30:02;;;;;;;16.60;13.07;;;10.00;99.90;;;;;;5074454;28;20441;-61
2023/02/17 03:32:29;;;;;;;15.48;13.85;;;10.10;99.90;;;;;;5074671;28;20204;-61
2023/02/17 03:34:56;;;;;;;16.00;13.50;;;10.00;99.90;;;;;;5073726;28;20571;-61
2023/02/17 03:37:24;;;;;;;16.17;14.47;;;10.10;99.90;;;;;;5082933;28;20217;-61
2023/02/17 03:39:51;;;;;;;15.88;14.27;;;10.10;99.90;;;;;;5085199;28;20450;-61
2023/02/17 03:42:18;;;;;;;15.95;13.50;;;10.10;99.90;;;;;;5085110;28;20206;-62
2023/02/17 03:44:45;;;;;;;14.10;12.70;;;10.10;99.90;;;;;;5082410;28;20206;-60
2023/02/17 03:47:11;;;;;;;15.95;13.63;;;10.10;99.90;;;;;;5073524;28;20212;-61
2023/02/17 03:49:38;;;;;;;15.80;13.95;;;10.10;99.90;;;;;;5073170;28;20666;-61
2023/02/17 03:52:05;;;;;;;16.87;14.13;;;10.10;99.90;;;;;;5073547;28;20225;-61
2023/02/17 03:54:33;;;;;;;16.83;14.43;;;10.10;99.90;;;;;;5073286;28;20448;-61
2023/02/17 03:57:00;;;;;;;15.70;13.85;;;10.10;99.90;;;;;;5073203;28;21034;-61
2023/02/17 03:59:27;;;;;;;15.13;13.05;;;10.10;99.90;;;;;;5073970;28;20206;-61
2023/02/17 04:01:54;;;;;;;15.68;14.00;;;10.10;99.90;;;;;;5073659;28;20208;-61
2023/02/17 04:04:21;;;;;;;14.75;13.23;;;10.10;99.90;;;;;;5073095;28;20208;-61
2023/02/17 04:06:47;;;;;;;14.32;12.10;;;10.10;99.90;;;;;;5073040;28;20225;-61
2023/02/17 04:11:13;;;;;;;13.63;12.02;;;10.10;99.90;;;;;;5091515;27;20551;-62
2023/02/17 04:13:40;;;;;;;13.15;11.85;;;10.10;99.90;;;;;;5091047;28;20203;-62
2023/02/17 04:16:09;;;;;;;14.85;13.00;;;10.10;99.90;;;;;;5091145;28;20229;-62
2023/02/17 04:18:36;;;;;;;15.43;12.88;;;10.10;99.90;;;;;;5090755;28;20689;-61
2023/02/17 04:21:04;;;;;;;14.77;11.90;;;10.10;99.90;;;;;;5091272;28;20208;-62
2023/02/17 04:23:31;;;;;;;14.18;11.73;;;10.10;99.90;;;;;;5090298;28;20211;-62
2023/02/17 04:25:57;;;;;;;13.20;11.57;;;10.10;99.90;;;;;;5107443;22;20221;-69
2023/02/17 04:28:26;;;;;;;13.52;12.15;;;10.10;99.90;;;;;;5070048;28;20210;-69
2023/02/17 04:30:52;;;;;;;14.35;12.85;;;10.10;99.90;;;;;;5070541;28;20310;-69
2023/02/17 04:33:19;;;;;;;13.23;11.43;;;10.10;99.90;;;;;;5071742;28;20208;-68
2023/02/17 04:35:47;;;;;;;13.25;11.70;;;10.10;99.90;;;;;;5071787;28;20224;-69
2023/02/17 04:38:14;;;;;;;13.50;12.15;;;10.20;99.90;;;;;;5071261;28;20581;-69
2023/02/17 04:40:41;;;;;;;12.90;11.60;;;10.10;99.90;;;;;;5070628;28;20199;-69
2023/02/17 04:43:09;;;;;;;12.55;11.20;;;10.20;99.90;;;;;;5070817;28;20451;-68
2023/02/17 04:45:38;;;;;;;13.50;12.10;;;10.20;99.90;;;;;;5070782;28;20236;-68
2023/02/17 04:48:04;;;;;;;13.50;11.93;;;10.10;99.90;;;;;;5070130;28;20450;-68
2023/02/17 04:50:31;;;;;;;12.88;11.57;;;10.10;99.90;;;;;;5070126;28;20542;-68
2023/02/17 04:52:58;;;;;;;12.45;11.15;;;10.10;99.90;;;;;;5070495;28;20227;-68
2023/02/17 04:55:25;;;;;;;13.23;11.82;;;10.10;99.90;;;;;;5071065;28;20229;-69
2023/02/17 04:57:51;;;;;;;15.05;11.80;;;10.10;99.90;;;;;;5071085;28;20199;-68
2023/02/17 05:00:19;;;;;;;13.23;11.30;;;10.10;99.90;;;;;;5069787;28;20196;-68
2023/02/17 05:02:47;;;;;;;14.50;11.13;;;10.10;99.90;;;;;;5070848;28;20456;-69
2023/02/17 05:05:14;;;;;;;13.77;12.35;;;10.10;99.90;;;;;;5070010;28;20676;-69
2023/02/17 05:07:42;;;;;;;13.15;11.50;;;10.10;99.90;;;;;;5069559;28;20667;-67
2023/02/17 05:10:09;;;;;;;12.55;11.25;;;10.10;99.90;;;;;;5070179;28;20223;-69
2023/02/17 05:12:36;;;;;;;12.40;11.10;;;10.10;99.90;;;;;;5069687;28;20204;-68
2023/02/17 05:15:04;;;;;;;13.85;11.45;;;10.10;99.90;;;;;;5069870;28;20227;-67
2023/02/17 05:17:31;;;;;;;12.07;10.80;;;10.10;99.90;;;;;;5069822;28;20203;-69
2023/02/17 05:19:59;;;;;;;12.40;11.10;;;10.10;99.90;;;;;;5070168;28;20200;-67
2023/02/17 05:22:26;;;;;;;13.48;11.60;;;10.10;99.90;;;;;;5056680;28;20698;-67
2023/02/17 05:24:53;;;;;;;13.00;10.75;;;10.10;99.90;;;;;;5056556;28;20247;-69
2023/02/17 05:27:20;;;;;;;13.63;11.68;;;10.10;99.90;;;;;;5057333;28;20616;-68
2023/02/17 05:29:47;;;;;;;14.48;12.05;;;10.10;99.90;;;;;;5056685;28;20234;-69
2023/02/17 05:32:14;;;;;;;13.75;11.65;;;10.10;99.90;;;;;;5056169;28;20205;-70
2023/02/17 05:34:41;;;;;;;14.45;12.10;;;10.10;99.90;;;;;;5056996;28;20204;-69
2023/02/17 05:37:09;;;;;;;13.70;12.23;;;10.20;99.90;;;;;;5056346;28;20224;-69
2023/02/17 05:39:36;;;;;;;14.48;12.13;;;10.20;99.90;;;;;;5056540;28;20212;-70
2023/02/17 05:42:03;;;;;;;13.77;12.13;;;10.20;99.90;;;;;;5056659;28;20209;-69
2023/02/17 05:44:30;;;;;;;14.63;12.70;;;10.20;99.90;;;;;;5057114;28;20201;-68
2023/02/17 05:46:57;;;;;;;15.38;13.65;;;10.30;99.90;;;;;;5056335;28;20318;-68
2023/02/17 05:49:24;;;;;;;16.27;13.20;;;10.30;99.90;;;;;;5057516;28;20290;-70
2023/02/17 05:51:51;;;;;;;14.15;12.55;;;10.30;99.90;;;;;;5058942;28;20448;-68
2023/02/17 05:54:19;;;;;;;18.35;13.30;;;10.30;99.90;;;;;;5057849;28;20211;-70
2023/02/17 05:56:46;;;;;;;16.00;13.70;;;10.40;99.90;;;;;;5056877;28;20282;-69
2023/02/17 05:59:12;;;;;;;15.80;13.50;;;10.40;99.90;;;;;;5056643;28;20457;-68
2023/02/17 06:01:39;;;;;;;15.02;12.40;;;10.40;99.90;;;;;;5057357;28;20446;-68
2023/02/17 06:04:06;;;;;;;15.43;12.98;;;10.40;99.90;;;;;;5057545;28;20326;-69
2023/02/17 06:06:33;;;;;;;16.10;13.27;;;10.50;99.90;;;;;;5059959;28;20230;-69
2023/02/17 06:09:00;;;;;;;17.17;14.13;;;10.50;99.90;;;;;;5059515;28;20546;-71
2023/02/17 06:11:28;;;;;;;17.35;14.27;;;10.50;99.90;;;;;;5057327;28;20568;-68
2023/02/17 06:13:55;;;;;;;16.70;14.50;;;10.50;99.90;;;;;;5057612;28;20212;-69
2023/02/17 06:16:22;;;;;;;14.23;11.88;;;10.50;99.90;;;;;;5057680;28;20920;-69
2023/02/17 06:18:49;;;;;;;16.83;13.20;;;10.60;99.90;;;;;;5056774;28;20204;-69
2023/02/17 06:21:16;;;;;;;16.75;13.88;;;10.60;99.90;;;;;;5056078;28;20546;-69
2023/02/17 06:23:42;;;;;;;15.20;13.07;;;10.60;99.90;;;;;;5055708;28;20211;-68
2023/02/17 06:26:09;;;;;;;16.15;14.25;;;10.60;99.90;;;;;;5056513;28;21015;-69
2023/02/17 06:28:37;;;;;;;15.80;13.20;;;10.60;99.90;;;;;;5057355;28;20675;-68
2023/02/17 06:31:04;;;;;;;18.92;15.77;;;10.60;99.90;;;;;;5058898;28;20597;-69
2023/02/17 06:33:31;;;;;;;17.80;14.10;;;10.60;99.90;;;;;;5055728;28;20653;-69
2023/02/17 06:35:58;;;;;;;18.20;14.53;;;10.60;99.90;;;;;;5049327;28;20244;-69
2023/02/17 06:38:25;;;;;;;17.73;14.47;;;10.70;99.90;;;;;;5046865;28;20554;-68
2023/02/17 06:40:53;;;;;;;18.37;14.27;;;10.70;99.90;;;;;;5059346;28;20463;-69
2023/02/17 06:43:20;;;;;;;17.48;15.07;;;10.70;99.90;;;;;;5059973;28;20463;-69
2023/02/17 06:45:48;;;;;;;16.67;14.83;;;10.70;99.90;;;;;;5055803;28;20287;-69
2023/02/17 06:48:15;;;;;;;17.87;14.77;;;10.70;99.90;;;;;;5040795;28;20446;-69
2023/02/17 06:50:42;;;;;;;18.73;15.00;;;10.70;99.90;;;;;;5052041;28;20787;-68
2023/02/17 06:53:08;;;;;;;16.03;13.70;;;10.70;99.90;;;;;;5053490;28;20468;-68
2023/02/17 06:55:37;;;;;;;17.90;14.13;;;10.70;99.90;;;;;;5054349;28;20482;-69
2023/02/17 06:58:03;;;;;;;20.73;16.03;;;10.80;99.90;;;;;;5053543;28;20965;-67
2023/02/17 07:00:30;;;;;;;19.33;16.57;;;10.80;99.90;;;;;;5054417;28;20447;-68
2023/02/17 07:02:58;;;;;;;19.20;15.80;;;10.80;99.90;;;;;;5054133;28;20466;-69
2023/02/17 07:05:25;;;;;;;20.43;15.60;;;10.80;99.90;;;;;;5054477;28;20475;-70
2023/02/17 07:07:54;;;;;;;17.80;13.90;;;10.80;99.90;;;;;;5054219;28;20471;-68
2023/02/17 07:10:21;;;;;;;19.23;17.10;;;10.80;99.90;;;;;;5054744;28;20574;-69
2023/02/17 07:12:48;;;;;;;18.43;15.23;;;10.80;99.90;;;;;;5054322;28;20456;-69
2023/02/17 07:15:15;;;;;;;19.40;16.30;;;10.80;99.90;;;;;;5055167;28;20457;-67
2023/02/17 07:17:42;;;;;;;16.20;14.40;;;10.80;99.90;;;;;;5059257;28;20959;-64
2023/02/17 07:20:11;;;;;;;17.30;15.17;;;10.90;99.90;;;;;;5048129;28;20504;-62
2023/02/17 07:22:38;;;;;;;18.20;14.73;;;10.90;99.90;;;;;;5060863;28;20572;-65
2023/02/17 07:25:06;;;;;;;17.10;15.30;;;10.90;99.90;;;;;;5055634;28;20478;-68
2023/02/17 07:27:34;;;;;;;16.87;14.70;;;10.90;99.90;;;;;;5054499;28;20452;-68
2023/02/17 07:30:01;;;;;;;17.23;14.53;;;10.90;99.90;;;;;;5056625;28;20547;-66
2023/02/17 07:32:28;;;;;;;16.77;15.07;;;10.90;99.90;;;;;;5076843;28;20442;-66
2023/02/17 07:34:55;;;;;;;17.87;15.97;;;10.90;99.90;;;;;;5059719;28;20459;-66
2023/02/17 07:37:23;;;;;;;17.07;15.20;;;10.90;99.90;;;;;;5043496;28;20506;-68
2023/02/17 07:39:51;;;;;;;18.60;14.03;;;10.90;99.90;;;;;;5053910;28;20490;-66
2023/02/17 07:42:18;;;;;;;17.77;15.33;;;11.00;99.90;;;;;;5058753;28;20458;-70
2023/02/17 07:44:45;;;;;;;17.37;15.00;;;11.00;99.90;;;;;;5050821;28;20539;-69
2023/02/17 07:47:11;;;;;;;19.67;16.27;;;11.00;99.90;;;;;;5057417;28;20475;-68
2023/02/17 07:49:38;;;;;;;24.93;17.80;;;11.00;99.90;;;;;;5057470;28;20458;-68
2023/02/17 07:52:05;;;;;;;21.73;16.17;;;11.00;99.90;;;;;;5054844;28;20479;-68
2023/02/17 07:54:33;;;;;;;19.77;16.20;;;11.00;99.90;;;;;;5052200;28;20481;-68
2023/02/17 07:57:00;;;;;;;19.80;15.80;;;11.00;99.90;;;;;;5054016;28;20467;-67
2023/02/17 07:59:27;;;;;;;20.43;18.33;;;11.00;99.90;;;;;;5053852;28;20490;-67
2023/02/17 08:01:54;;;;;;;18.67;15.70;;;11.10;99.90;;;;;;5058127;28;20461;-67
2023/02/17 08:04:21;;;;;;;20.30;15.57;;;11.10;99.90;;;;;;5057327;28;20562;-68
2023/02/17 08:06:48;;;;;;;20.37;17.57;;;11.10;99.90;;;;;;5055741;28;20490;-68
2023/02/17 08:14:45;;;;;;;19.27;15.77;;;11.20;99.90;;;;;;5034380;28;20401;-69
2023/02/17 08:17:11;;;;;;;20.40;16.50;;;11.20;99.90;;;;;;5047383;28;20478;-68
2023/02/17 08:19:38;;;;;;;19.73;16.27;;;11.20;99.90;;;;;;5054184;28;20529;-67
2023/02/17 08:22:05;;;;;;;22.47;15.87;;;11.20;99.90;;;;;;5053541;28;20532;-68
2023/02/17 08:24:32;;;;;;;19.33;15.83;;;11.20;99.90;;;;;;5053670;28;20446;-67
2023/02/17 08:27:00;;;;;;;17.73;15.20;;;11.20;99.90;;;;;;5048521;28;20487;-68
2023/02/17 08:29:27;;;;;;;21.47;16.17;;;11.30;99.90;;;;;;5066322;28;20533;-68
2023/02/17 08:31:54;;;;;;;18.50;15.40;;;11.30;99.90;;;;;;5050083;28;20481;-68
2023/02/17 08:34:21;;;;;;;16.97;14.90;;;11.30;99.90;;;;;;5055978;28;20557;-67
2023/02/17 08:36:48;;;;;;;15.43;12.57;;;11.30;99.90;;;;;;5053910;28;20494;-67
2023/02/17 08:39:17;;;;;;;17.47;14.37;;;11.30;99.90;;;;;;5058634;28;20530;-67
2023/02/17 08:41:44;;;;;;;17.40;14.27;;;11.30;99.90;;;;;;5055373;28;20473;-70
2023/02/17 08:44:14;;;;;;;16.60;14.27;;;11.30;99.90;;;;;;5074228;28;20449;-69
2023/02/17 08:46:41;;;;;;;15.47;13.77;;;11.30;99.90;;;;;;5072192;28;20473;-70
2023/02/17 08:49:08;;;;;;;17.50;13.60;;;11.40;99.90;;;;;;5073990;28;20439;-69
2023/02/17 08:51:36;;;;;;;16.00;13.07;;;11.40;99.90;;;;;;5074449;28;20530;-69
2023/02/17 08:54:05;;;;;;;12.77;11.23;;;11.40;99.90;;;;;;5074057;28;20480;-69
2023/02/17 08:56:33;;;;;;;16.40;13.70;;;11.40;99.90;;;;;;5075598;28;20831;-70
2023/02/17 08:59:00;;;;;;;15.40;13.80;;;11.40;99.90;;;;;;5078454;28;20970;-67
2023/02/17 09:01:28;;;;;;;15.57;12.63;;;11.40;99.90;;;;;;5078682;28;20451;-66
2023/02/17 09:03:56;;;;;;;16.63;13.07;;;11.40;99.90;;;;;;5079022;28;20442;-67
2023/02/17 09:06:23;;;;;;;14.37;11.70;;;11.40;99.90;;;;;;5077689;28;20472;-70
2023/02/17 09:08:50;;;;;;;13.43;10.93;;;11.50;99.90;;;;;;5077629;28;20469;-69
2023/02/17 09:11:18;;;;;;;14.27;11.30;;;11.50;99.90;;;;;;5077464;28;20483;-69
2023/02/17 09:13:45;;;;;;;13.60;11.90;;;11.50;99.90;;;;;;5076510;28;20447;-69
2023/02/17 09:16:12;;;;;;;12.87;10.53;;;11.50;99.90;;;;;;5075926;28;20795;-69
2023/02/17 09:18:40;;;;;;;12.70;10.20;;;11.60;99.90;;;;;;5076462;28;20442;-67
2023/02/17 09:21:08;;;;;;;11.27;9.67;;;11.60;99.90;;;;;;5076497;28;20496;-66
2023/02/17 09:23:35;;;;;;;12.83;10.40;;;11.60;99.90;;;;;;5077041;28;20539;-70
2023/02/17 09:26:05;;;;;;;11.60;10.00;;;11.60;99.90;;;;;;5079135;28;20564;-68
2023/02/17 09:28:32;;;;;;;11.43;8.23;;;11.70;99.90;;;;;;5077918;28;20520;-69
2023/02/17 09:31:07;;;;;;;10.33;9.33;;;11.70;99.90;;;;;;5078924;28;20482;-69
2023/02/17 09:33:34;;;;;;;10.33;7.97;;;11.70;99.90;;;;;;5079601;28;20423;-66
2023/02/17 09:36:02;;;;;;;11.00;9.90;;;11.70;99.90;;;;;;5078019;28;20974;-70
2023/02/17 09:38:28;;;;;;;10.00;7.50;;;11.70;99.90;;;;;;5076649;28;20474;-68
2023/02/17 09:41:01;;;;;;;10.57;8.77;;;11.70;99.90;;;;;;5076403;28;20446;-67
2023/02/17 09:43:30;;;;;;;9.93;8.23;;;11.70;99.90;;;;;;5076718;28;20480;-67
2023/02/17 09:46:04;;;;;;;9.27;8.03;;;11.80;99.90;;;;;;5075528;28;20566;-66
2023/02/17 09:48:33;;;;;;;8.60;7.70;;;11.80;99.90;;;;;;5075388;28;20431;-66
2023/02/17 09:51:06;;;;;;;10.40;8.00;;;11.80;99.90;;;;;;5075643;28;20489;-69
2023/02/17 09:53:38;;;;;;;9.90;8.27;;;11.80;99.90;;;;;;5075409;28;20431;-66
2023/02/17 09:56:11;;;;;;;12.27;9.23;;;11.80;99.90;;;;;;5075766;28;20470;-73
2023/02/17 09:58:41;;;;;;;9.47;8.07;;;11.80;99.90;;;;;;5075997;28;20439;-67
2023/02/17 10:01:11;;;;;;;12.03;9.33;;;11.80;99.90;;;;;;5075793;28;20451;-66
2023/02/17 10:03:42;;;;;;;10.67;9.47;;;11.90;99.90;;;;;;5076509;28;20451;-72
2023/02/17 10:06:15;;;;;;;11.07;9.70;;;11.90;99.90;;;;;;5077584;28;20997;-68
2023/02/17 10:08:48;;;;;;;10.70;9.30;;;11.90;99.90;;;;;;5076177;28;20431;-68
2023/02/17 10:11:23;;;;;;;9.93;8.17;;;11.90;99.90;;;;;;5076281;28;20471;-67
2023/02/17 10:13:51;;;;;;;12.30;9.17;;;11.90;99.90;;;;;;5076157;28;20475;-66
2023/02/17 10:16:23;;;;;;;13.70;10.30;;;11.90;99.90;;;;;;5075863;28;20471;-66
2023/02/17 10:18:57;;;;;;;10.67;9.13;;;11.90;99.90;;;;;;5076394;28;20541;-66
2023/02/17 10:21:29;;;;;;;12.67;9.67;;;11.90;99.90;;;;;;5075725;28;20431;-66
2023/02/17 10:23:56;;;;;;;15.13;10.73;;;11.90;99.90;;;;;;5076117;28;20533;-67
2023/02/17 10:26:33;;;;;;;11.23;9.70;;;11.90;99.90;;;;;;5087076;22;20564;-60
2023/02/17 10:29:05;;;;;;;13.90;10.47;;;11.80;99.90;;;;;;5055369;28;20515;-61
2023/02/17 10:31:44;;;;;;;15.90;11.33;;;11.80;99.90;;;;;;5055545;28;20478;-61
2023/02/17 10:34:19;;;;;;;12.43;10.43;;;11.80;99.90;;;;;;5055623;28;20427;-60
2023/02/17 10:36:56;;;;;;;14.93;12.47;;;11.80;99.90;;;;;;5057409;28;20481;-62
2023/02/17 10:39:36;;;;;;;14.57;12.43;;;11.80;99.90;;;;;;5058221;28;20811;-61
2023/02/17 10:42:04;;;;;;;14.80;12.70;;;11.80;99.90;;;;;;5059347;28;20430;-61
2023/02/17 10:44:36;;;;;;;16.37;13.00;;;11.90;99.90;;;;;;5059206;28;20482;-61
2023/02/17 10:47:04;;;;;;;19.33;13.43;;;11.90;99.90;;;;;;5057999;28;20467;-62
2023/02/17 10:49:35;;;;;;;18.27;12.60;;;11.90;99.90;;;;;;5055481;28;20458;-62
2023/02/17 10:52:11;;;;;;;18.93;14.10;;;12.00;99.90;;;;;;5055425;28;20492;-61
2023/02/17 10:54:42;;;;;;;15.80;14.07;;;12.00;99.90;;;;;;5056260;28;20774;-62
2023/02/17 10:57:12;;;;;;;17.40;14.60;;;12.10;99.90;;;;;;5055828;28;20475;-62
2023/02/17 10:59:41;;;;;;;17.33;13.70;;;12.10;99.90;;;;;;5056077;28;20503;-61
2023/02/17 11:02:19;;;;;;;19.37;13.67;;;12.20;99.90;;;;;;5056157;28;20450;-61
2023/02/17 11:04:48;;;;;;;17.57;13.60;;;12.20;99.90;;;;;;5057115;28;20439;-62
2023/02/17 11:07:19;;;;;;;17.23;14.30;;;12.20;99.90;;;;;;5056282;28;20514;-61
2023/02/17 11:09:48;;;;;;;19.10;16.27;;;12.20;99.90;;;;;;5055565;28;20476;-63
2023/02/17 11:12:20;;;;;;;18.23;15.27;;;12.30;99.90;;;;;;5055370;28;20499;-63
2023/02/17 11:14:49;;;;;;;17.23;14.07;;;12.30;99.90;;;;;;5055598;28;20858;-63
2023/02/17 11:17:22;;;;;;;19.20;15.50;;;12.30;99.90;;;;;;5055893;28;20840;-64
2023/02/17 11:19:58;;;;;;;17.60;13.67;;;12.40;99.90;;;;;;5056481;28;20433;-62
2023/02/17 11:22:34;;;;;;;19.80;15.63;;;12.50;99.90;;;;;;5054742;28;20447;-62
2023/02/17 11:25:04;;;;;;;17.20;15.10;;;12.50;99.90;;;;;;5054498;28;20482;-62
2023/02/17 11:27:31;;;;;;;17.70;14.50;;;12.60;99.90;;;;;;5053879;28;20472;-61
2023/02/17 11:30:09;;;;;;;19.50;14.70;;;12.70;99.90;;;;;;5054377;28;20444;-63
2023/02/17 11:32:36;;;;;;;17.20;15.40;;;12.80;99.90;;;;;;5054347;28;20469;-60
2023/02/17 11:35:05;;;;;;;16.53;13.80;;;12.90;99.90;;;;;;5054550;28;20815;-63
2023/02/17 11:37:37;;;;;;;16.43;13.27;;;13.00;99.90;;;;;;5054003;28;20472;-62
2023/02/17 11:40:24;;;;;;;15.07;13.30;;;13.10;99.90;;;;;;5054785;28;20429;-62
2023/02/17 11:42:56;;;;;;;15.57;13.93;;;13.20;99.90;;;;;;5055244;28;20499;-63
2023/02/17 11:45:24;;;;;;;17.37;14.90;;;13.30;99.90;;;;;;5054766;28;20435;-61
2023/02/17 11:48:03;;;;;;;16.27;14.03;;;13.30;99.90;;;;;;5054328;28;20795;-63
2023/02/17 11:50:34;;;;;;;15.77;14.10;;;13.40;99.90;;;;;;5054265;28;20424;-62
2023/02/17 11:53:19;;;;;;;14.40;12.90;;;13.40;99.90;;;;;;5054317;28;20472;-63
2023/02/17 11:55:58;;;;;;;13.17;11.67;;;13.40;99.90;;;;;;5054821;28;20429;-62
2023/02/17 11:58:36;;;;;;;14.63;13.13;;;13.40;99.90;;;;;;5054223;28;20479;-61
2023/02/17 12:01:16;;;;;;;12.60;11.37;;;13.40;99.90;;;;;;5053401;28;20433;-62
2023/02/17 12:03:56;;;;;;;14.90;12.70;;;13.40;99.90;;;;;;5053919;28;20433;-62
2023/02/17 12:06:31;;;;;;;13.90;12.47;;;13.40;99.90;;;;;;5055676;28;20472;-61
2023/02/17 12:09:10;;;;;;;11.90;10.80;;;13.40;99.90;;;;;;5055668;28;20428;-63
2023/02/17 12:11:48;;;;;;;13.03;11.17;;;13.50;99.90;;;;;;5055461;28;20947;-64
2023/02/17 12:14:39;;;;;;;12.40;10.53;;;13.60;99.90;;;;;;5056133;28;20436;-65
2023/02/17 12:17:14;;;;;;;13.73;10.00;;;13.70;99.90;;;;;;5055048;28;20811;-64
2023/02/17 12:19:49;;;;;;;12.60;10.20;;;13.70;99.90;;;;;;5054352;28;20425;-63
2023/02/17 12:22:18;;;;;;;11.70;10.60;;;13.80;99.90;;;;;;5054453;28;20424;-64
2023/02/17 12:25:03;;;;;;;10.60;9.40;;;13.80;99.90;;;;;;5054031;28;20449;-65
2023/02/17 12:27:41;;;;;;;10.37;9.30;;;13.80;99.90;;;;;;5053787;28;20837;-65
2023/02/17 12:30:23;;;;;;;12.60;11.30;;;13.80;99.90;;;;;;5055394;28;20433;-64
2023/02/17 12:33:23;;;;;;;10.80;9.80;;;13.70;99.90;;;;;;5058449;28;20471;-64
2023/02/17 12:35:53;;;;;;;12.00;8.87;;;13.60;99.90;;;;;;5043746;28;20793;-64
2023/02/17 12:38:25;;;;;;;11.43;10.23;;;13.60;99.90;;;;;;5058398;28;20448;-64
2023/02/17 12:40:58;;;;;;;10.03;8.70;;;13.50;99.90;;;;;;5057036;28;20416;-64
2023/02/17 12:43:30;;;;;;;11.83;10.30;;;13.40;99.90;;;;;;5057477;28;20436;-64
2023/02/17 12:46:00;;;;;;;11.37;10.23;;;13.30;99.90;;;;;;5056562;28;20908;-65
2023/02/17 12:48:33;;;;;;;10.87;9.87;;;13.30;99.90;;;;;;5057085;28;20440;-64
2023/02/17 12:51:05;;;;;;;12.03;10.50;;;13.30;99.90;;;;;;5056511;28;20801;-64